createdAt,value
2023-04-18T00:01:55.025Z,102682.19
2023-04-18T00:04:22.927Z,102686.88
2023-04-18T00:06:52.192Z,102690.81
2023-04-18T00:09:20.017Z,102691.22
2023-04-18T00:11:48.399Z,102689.69
2023-04-18T00:14:16.494Z,102691.69
2023-04-18T00:16:46.249Z,102690.53
2023-04-18T00:19:14.270Z,102689.75
2023-04-18T00:21:44.589Z,102686.69
2023-04-18T00:24:12.701Z,102695.63
2023-04-18T00:26:40.603Z,102690.22
2023-04-18T00:29:08.449Z,102694.50
2023-04-18T00:31:36.599Z,102697.22
2023-04-18T00:34:05.767Z,102695.69
2023-04-18T00:36:33.578Z,102694.97
2023-04-18T00:39:01.332Z,102691.47
2023-04-18T00:41:29.558Z,102693.06
2023-04-18T00:43:57.372Z,102694.25
2023-04-18T00:46:25.441Z,102691.94
2023-04-18T00:48:53.436Z,102695.03
2023-04-18T00:51:22.622Z,102684.59
2023-04-18T00:53:51.298Z,102683.44
2023-04-18T00:56:19.167Z,102686.56
2023-04-18T00:58:46.983Z,102685.00
2023-04-18T01:01:14.750Z,102684.59
2023-04-18T01:03:43.954Z,102679.94
2023-04-18T01:06:11.909Z,102684.59
2023-04-18T01:08:41.828Z,102686.16
2023-04-18T01:11:09.616Z,102679.97
2023-04-18T01:13:37.378Z,102684.63
2023-04-18T01:16:05.724Z,102676.09
2023-04-18T01:18:35.096Z,102681.56
2023-04-18T01:21:03.311Z,102677.69
2023-04-18T01:23:31.466Z,102674.94
2023-04-18T01:26:00.631Z,102679.63
2023-04-18T01:28:28.516Z,102673.06
2023-04-18T01:30:57.092Z,102670.72
2023-04-18T01:33:24.885Z,102673.03
2023-04-18T01:35:52.712Z,102664.50
2023-04-18T01:38:20.500Z,102668.78
2023-04-18T01:40:48.340Z,102668.78
2023-04-18T01:43:17.568Z,102664.53
2023-04-18T01:45:45.387Z,102662.56
2023-04-18T01:48:13.237Z,102661.41
2023-04-18T01:50:42.989Z,102668.78
2023-04-18T01:53:11.806Z,102663.75
2023-04-18T01:55:39.586Z,102662.56
2023-04-18T01:58:07.761Z,102662.19
2023-04-18T02:00:38.649Z,102661.78
2023-04-18T02:03:06.711Z,102663.38
2023-04-18T02:05:34.628Z,102657.94
2023-04-18T02:08:02.399Z,102660.63
2023-04-18T02:10:30.158Z,102659.88
2023-04-18T02:12:57.932Z,102652.50
2023-04-18T02:15:26.329Z,102658.69
2023-04-18T02:17:55.634Z,102669.53
2023-04-18T02:20:26.176Z,102656.75
2023-04-18T02:22:54.630Z,102657.53
2023-04-18T02:25:23.603Z,102659.84
2023-04-18T02:27:51.784Z,102661.03
2023-04-18T02:30:19.692Z,102662.19
2023-04-18T02:32:47.475Z,102652.88
2023-04-18T02:35:16.999Z,102655.97
2023-04-18T02:37:44.797Z,102662.19
2023-04-18T02:40:13.956Z,102656.34
2023-04-18T02:42:41.776Z,102661.78
2023-04-18T02:45:10.358Z,102666.03
2023-04-18T02:47:51.190Z,102661.41
2023-04-18T02:50:23.390Z,102664.84
2023-04-18T02:52:51.726Z,102667.97
2023-04-18T02:55:22.022Z,102666.41
2023-04-18T02:57:49.901Z,102657.88
2023-04-18T03:00:36.474Z,102655.91
2023-04-18T03:03:27.921Z,102661.72
2023-04-18T03:06:10.547Z,102661.72
2023-04-18T03:08:38.872Z,102658.97
2023-04-18T03:11:06.691Z,102649.66
2023-04-18T03:13:36.237Z,102655.09
2023-04-18T03:16:04.622Z,102650.03
2023-04-18T03:18:33.114Z,102652.72
2023-04-18T03:21:01.022Z,102651.19
2023-04-18T03:23:31.908Z,102652.38
2023-04-18T03:26:02.316Z,102657.38
2023-04-18T03:28:32.535Z,102653.84
2023-04-18T03:31:00.969Z,102656.97
2023-04-18T03:33:29.782Z,102654.25
2023-04-18T03:36:07.459Z,102654.63
2023-04-18T03:38:37.869Z,102658.88
2023-04-18T03:41:05.870Z,102661.97
2023-04-18T03:43:36.114Z,102661.53
2023-04-18T03:46:04.135Z,102668.88
2023-04-18T03:48:35.756Z,102665.34
2023-04-18T03:51:07.097Z,102666.88
2023-04-18T03:53:36.973Z,102671.09
2023-04-18T03:56:04.850Z,102661.84
2023-04-18T03:58:48.297Z,102665.66
2023-04-18T04:01:16.515Z,102665.66
2023-04-18T04:03:44.479Z,102670.28
2023-04-18T04:06:12.703Z,102671.06
2023-04-18T04:08:42.040Z,102676.84
2023-04-18T04:11:09.855Z,102675.31
2023-04-18T04:13:37.656Z,102671.84
2023-04-18T04:16:06.857Z,102669.91
2023-04-18T04:18:34.713Z,102676.09
2023-04-18T04:21:04.551Z,102669.13
2023-04-18T04:23:42.867Z,102674.53
2023-04-18T04:26:15.778Z,102665.25
2023-04-18T04:28:51.658Z,102662.53
2023-04-18T04:31:23.503Z,102670.69
2023-04-18T04:33:51.772Z,102675.00
2023-04-18T04:36:23.079Z,102669.19
2023-04-18T04:38:54.217Z,102677.31
2023-04-18T04:41:31.593Z,102675.78
2023-04-18T04:44:01.847Z,102675.03
2023-04-18T04:46:33.787Z,102680.84
2023-04-18T04:49:04.769Z,102669.22
2023-04-18T04:51:32.688Z,102686.28
2023-04-18T04:54:02.234Z,102685.50
2023-04-18T04:56:30.088Z,102686.66
2023-04-18T04:58:57.884Z,102693.66
2023-04-18T05:01:32.212Z,102684.38
2023-04-18T05:04:00.397Z,102692.53
2023-04-18T05:06:28.586Z,102692.53
2023-04-18T05:08:57.563Z,102692.19
2023-04-18T05:11:26.731Z,102684.81
2023-04-18T05:13:54.567Z,102691.78
2023-04-18T05:16:22.534Z,102692.19
2023-04-18T05:18:50.362Z,102690.25
2023-04-18T05:21:18.126Z,102696.47
2023-04-18T05:23:46.353Z,102694.53
2023-04-18T05:26:14.213Z,102698.78
2023-04-18T05:28:43.581Z,102695.34
2023-04-18T05:31:11.462Z,102705.41
2023-04-18T05:33:39.272Z,102699.63
2023-04-18T05:36:07.733Z,102704.25
2023-04-18T05:38:35.658Z,102701.16
2023-04-18T05:41:03.449Z,102708.53
2023-04-18T05:43:31.230Z,102714.34
2023-04-18T05:46:00.389Z,102707.78
2023-04-18T05:48:28.524Z,102712.81
2023-04-18T05:50:56.397Z,102710.13
2023-04-18T05:53:24.229Z,102710.13
2023-04-18T05:55:52.046Z,102708.56
2023-04-18T05:58:19.789Z,102713.66
2023-04-18T06:00:48.238Z,102714.06
2023-04-18T06:03:17.639Z,102721.03
2023-04-18T06:05:45.888Z,102714.81
2023-04-18T06:08:13.892Z,102729.19
2023-04-18T06:10:41.668Z,102715.63
2023-04-18T06:13:09.422Z,102725.31
2023-04-18T06:15:37.240Z,102725.72
2023-04-18T06:18:05.303Z,102722.25
2023-04-18T06:20:34.433Z,102729.25
2023-04-18T06:23:02.204Z,102731.97
2023-04-18T06:25:30.287Z,102726.16
2023-04-18T06:27:58.116Z,102730.44
2023-04-18T06:30:25.917Z,102737.44
2023-04-18T06:32:53.715Z,102727.75
2023-04-18T06:35:21.565Z,102723.50
2023-04-18T06:37:51.030Z,102734.38
2023-04-18T06:40:19.002Z,102727.78
2023-04-18T06:42:47.103Z,102737.88
2023-04-18T06:45:19.435Z,102739.44
2023-04-18T06:47:47.898Z,102740.19
2023-04-18T06:50:16.498Z,102742.53
2023-04-18T06:52:45.621Z,102739.00
2023-04-18T06:55:15.291Z,102743.69
2023-04-18T06:57:43.782Z,102747.16
2023-04-18T07:00:12.472Z,102748.72
2023-04-18T07:02:41.124Z,102750.66
2023-04-18T07:05:09.907Z,102758.03
2023-04-18T07:07:37.810Z,102748.72
2023-04-18T07:10:06.860Z,102749.47
2023-04-18T07:12:36.031Z,102741.69
2023-04-18T07:15:04.720Z,102747.13
2023-04-18T07:17:32.749Z,102746.38
2023-04-18T07:20:00.795Z,102746.34
2023-04-18T07:22:28.558Z,102755.66
2023-04-18T07:24:56.357Z,102752.91
2023-04-18T07:27:24.142Z,102756.41
2023-04-18T07:29:53.271Z,102752.50
2023-04-18T07:32:21.145Z,102757.53
2023-04-18T07:34:49.074Z,102752.88
2023-04-18T07:37:18.960Z,102750.50
2023-04-18T07:39:46.894Z,102751.28
2023-04-18T07:42:14.876Z,102756.72
2023-04-18T07:44:42.762Z,102749.72
2023-04-18T07:47:14.206Z,102748.47
2023-04-18T07:49:42.044Z,102748.38
2023-04-18T07:52:09.840Z,102742.75
2023-04-18T07:54:37.704Z,102744.56
2023-04-18T07:57:05.515Z,102753.47
2023-04-18T07:59:33.283Z,102757.66
2023-04-18T08:02:01.151Z,102756.38
2023-04-18T08:04:30.769Z,102746.50
2023-04-18T08:06:58.639Z,102751.13
2023-04-18T08:09:26.469Z,102754.81
2023-04-18T08:11:55.219Z,102753.53
2023-04-18T08:14:23.035Z,102747.16
2023-04-18T08:16:50.828Z,102752.00
2023-04-18T08:19:18.640Z,102753.44
2023-04-18T08:21:47.786Z,102748.97
2023-04-18T08:24:15.539Z,102755.50
2023-04-18T08:26:43.313Z,102755.47
2023-04-18T08:29:11.718Z,102756.03
2023-04-18T08:31:40.086Z,102769.13
2023-04-18T08:34:07.908Z,102758.97
2023-04-18T08:36:36.197Z,102762.59
2023-04-18T08:39:06.285Z,102755.94
2023-04-18T08:41:37.878Z,102763.50
2023-04-18T08:44:05.917Z,102755.94
2023-04-18T08:46:35.836Z,102753.88
2023-04-18T08:49:04.903Z,102769.28
2023-04-18T08:51:33.852Z,102758.88
2023-04-18T08:54:04.465Z,102759.09
2023-04-18T08:56:33.648Z,102755.88
2023-04-18T08:59:01.376Z,102762.88
2023-04-18T09:01:52.154Z,102760.59
2023-04-18T09:04:39.765Z,102758.34
2023-04-18T09:07:10.120Z,102762.34
2023-04-18T09:09:42.301Z,102755.22
2023-04-18T09:12:14.315Z,102763.50
2023-04-18T09:14:46.857Z,102762.53
2023-04-18T09:17:31.582Z,102759.66
2023-04-18T09:20:00.184Z,102754.72
2023-04-18T09:22:46.179Z,102758.22
2023-04-18T09:25:25.994Z,102756.03
2023-04-18T09:27:55.253Z,102754.31
2023-04-18T09:30:40.104Z,102751.75
2023-04-18T09:33:10.218Z,102756.31
2023-04-18T09:35:38.548Z,102757.63
2023-04-18T09:38:08.359Z,102756.25
2023-04-18T09:40:36.524Z,102757.34
2023-04-18T09:43:19.302Z,102755.59
2023-04-18T09:45:49.220Z,102750.66
2023-04-18T09:48:17.105Z,102757.44
2023-04-18T09:50:47.118Z,102765.06
2023-04-18T09:53:20.771Z,102750.47
2023-04-18T09:55:52.363Z,102754.63
2023-04-18T09:58:23.459Z,102757.53
2023-04-18T10:00:54.170Z,102746.25
2023-04-18T10:03:28.688Z,102739.31
2023-04-18T10:05:57.889Z,102746.91
2023-04-18T10:08:27.341Z,102746.19
2023-04-18T10:10:55.922Z,102742.97
2023-04-18T10:13:27.057Z,102734.34
2023-04-18T10:15:55.819Z,102747.31
2023-04-18T10:18:24.874Z,102753.66
2023-04-18T10:21:02.197Z,102743.03
2023-04-18T10:23:38.136Z,102735.91
2023-04-18T10:26:06.729Z,102740.44
2023-04-18T10:28:57.856Z,102740.97
2023-04-18T10:31:26.963Z,102734.72
2023-04-18T10:34:04.653Z,102739.16
2023-04-18T10:36:34.132Z,102744.00
2023-04-18T10:39:04.245Z,102741.19
2023-04-18T10:41:33.455Z,102742.38
2023-04-18T10:44:23.740Z,102742.84
2023-04-18T10:47:21.691Z,102732.78
2023-04-18T10:50:06.100Z,102722.38
2023-04-18T10:52:34.411Z,102725.00
2023-04-18T10:55:14.474Z,102718.91
2023-04-18T10:57:43.665Z,102721.59
2023-04-18T11:00:15.261Z,102714.63
2023-04-18T11:02:50.094Z,102715.16
2023-04-18T11:05:23.913Z,102714.63
2023-04-18T11:07:53.025Z,102704.00
2023-04-18T11:10:22.700Z,102714.25
2023-04-18T11:12:51.015Z,102710.50
2023-04-18T11:15:22.502Z,102712.16
2023-04-18T11:17:58.358Z,102710.41
2023-04-18T11:20:26.593Z,102703.13
2023-04-18T11:22:56.186Z,102710.50
2023-04-18T11:25:26.951Z,102693.44
2023-04-18T11:27:59.212Z,102699.50
2023-04-18T11:30:31.324Z,102705.31
2023-04-18T11:32:59.275Z,102697.41
2023-04-18T11:35:27.430Z,102697.03
2023-04-18T11:37:55.522Z,102695.50
2023-04-18T11:40:23.410Z,102701.09
2023-04-18T11:42:51.147Z,102693.41
2023-04-18T11:45:18.906Z,102699.56
2023-04-18T11:47:48.193Z,102703.97
2023-04-18T11:50:16.145Z,102699.28
2023-04-18T11:52:43.902Z,102698.84
2023-04-18T11:55:14.073Z,102701.94
2023-04-18T11:57:42.587Z,102710.56
2023-04-18T12:00:12.360Z,102702.25
2023-04-18T12:02:43.102Z,102707.84
2023-04-18T12:05:14.975Z,102703.22
2023-04-18T12:07:45.792Z,102703.03
2023-04-18T12:10:25.720Z,102699.28
2023-04-18T12:12:54.435Z,102695.75
2023-04-18T12:15:25.256Z,102702.00
2023-04-18T12:17:53.251Z,102701.69
2023-04-18T12:20:25.141Z,102695.59
2023-04-18T12:22:55.087Z,102703.00
2023-04-18T12:25:27.031Z,102701.56
2023-04-18T12:27:57.886Z,102703.44
2023-04-18T12:30:27.423Z,102697.28
2023-04-18T12:32:56.836Z,102697.06
2023-04-18T12:35:26.797Z,102696.41
2023-04-18T12:37:57.107Z,102684.44
2023-04-18T12:40:26.270Z,102694.66
2023-04-18T12:42:55.331Z,102681.78
2023-04-18T12:45:24.280Z,102695.41
2023-04-18T12:47:53.251Z,102684.97
2023-04-18T12:50:22.783Z,102684.66
2023-04-18T12:52:52.866Z,102676.06
2023-04-18T12:55:21.124Z,102679.81
2023-04-18T12:57:48.998Z,102686.72
2023-04-18T13:00:16.895Z,102694.28
2023-04-18T13:02:45.983Z,102685.28
2023-04-18T13:05:16.566Z,102684.63
2023-04-18T13:07:44.821Z,102689.81
2023-04-18T13:10:15.531Z,102684.19
2023-04-18T13:12:43.318Z,102689.56
2023-04-18T13:15:11.917Z,102686.03
2023-04-18T13:17:40.536Z,102684.81
2023-04-18T13:20:10.607Z,102690.41
2023-04-18T13:22:39.068Z,102680.84
2023-04-18T13:25:08.310Z,102690.81
2023-04-18T13:27:39.557Z,102682.47
2023-04-18T13:30:11.482Z,102676.13
2023-04-18T13:32:40.469Z,102680.72
2023-04-18T13:35:10.629Z,102687.78
2023-04-18T13:37:38.959Z,102691.81
2023-04-18T13:40:08.050Z,102690.25
2023-04-18T13:42:38.566Z,102683.47
2023-04-18T13:45:07.304Z,102680.97
2023-04-18T13:47:35.863Z,102679.47
2023-04-18T13:50:03.963Z,102669.38
2023-04-18T13:52:31.763Z,102671.03
2023-04-18T13:54:59.562Z,102676.72
2023-04-18T13:57:28.391Z,102672.78
2023-04-18T13:59:57.472Z,102670.91
2023-04-18T14:02:25.394Z,102664.59
2023-04-18T14:04:54.856Z,102678.66
2023-04-18T14:07:22.882Z,102678.00
2023-04-18T14:09:52.024Z,102671.31
2023-04-18T14:12:21.593Z,102675.19
2023-04-18T14:14:49.374Z,102666.59
2023-04-18T14:17:18.521Z,102672.63
2023-04-18T14:19:46.441Z,102670.28
2023-04-18T14:22:14.262Z,102661.38
2023-04-18T14:24:42.070Z,102666.63
2023-04-18T14:27:09.828Z,102666.28
2023-04-18T14:29:37.580Z,102659.13
2023-04-18T14:32:06.949Z,102658.19
2023-04-18T14:34:37.385Z,102660.47
2023-04-18T14:37:06.542Z,102653.22
2023-04-18T14:39:34.311Z,102646.84
2023-04-18T14:42:02.210Z,102652.88
2023-04-18T14:44:30.706Z,102649.44
2023-04-18T14:46:58.561Z,102647.72
2023-04-18T14:49:26.386Z,102654.81
2023-04-18T14:51:55.922Z,102644.34
2023-04-18T14:54:23.720Z,102644.56
2023-04-18T14:56:51.492Z,102640.75
2023-04-18T14:59:19.410Z,102644.78
2023-04-18T15:01:47.569Z,102640.16
2023-04-18T15:04:15.913Z,102643.38
2023-04-18T15:06:43.990Z,102637.25
2023-04-18T15:09:17.418Z,102638.31
2023-04-18T15:11:45.184Z,102640.91
2023-04-18T15:14:13.150Z,102633.84
2023-04-18T15:16:41.155Z,102634.84
2023-04-18T15:19:09.030Z,102628.72
2023-04-18T15:21:36.824Z,102629.34
2023-04-18T15:24:04.710Z,102623.25
2023-04-18T15:26:33.893Z,102628.97
2023-04-18T15:29:02.479Z,102636.19
2023-04-18T15:31:30.594Z,102634.44
2023-04-18T15:33:58.381Z,102632.19
2023-04-18T15:36:27.681Z,102620.53
2023-04-18T15:38:55.492Z,102624.81
2023-04-18T15:41:23.280Z,102616.09
2023-04-18T15:43:53.469Z,102617.88
2023-04-18T15:46:21.270Z,102622.66
2023-04-18T15:48:49.068Z,102612.66
2023-04-18T15:51:17.239Z,102618.34
2023-04-18T15:53:44.993Z,102622.41
2023-04-18T15:56:13.760Z,102604.00
2023-04-18T15:58:41.803Z,102614.19
2023-04-18T16:01:13.079Z,102610.22
2023-04-18T16:03:40.958Z,102606.22
2023-04-18T16:06:09.942Z,102611.59
2023-04-18T16:08:38.181Z,102617.94
2023-04-18T16:11:06.215Z,102610.28
2023-04-18T16:13:38.291Z,102609.25
2023-04-18T16:16:06.966Z,102613.69
2023-04-18T16:18:36.245Z,102614.56
2023-04-18T16:21:04.085Z,102611.38
2023-04-18T16:23:32.841Z,102612.91
2023-04-18T16:26:00.627Z,102604.78
2023-04-18T16:28:29.940Z,102603.22
2023-04-18T16:30:57.896Z,102610.09
2023-04-18T16:33:26.175Z,102613.22
2023-04-18T16:35:58.481Z,102609.25
2023-04-18T16:38:27.328Z,102608.28
2023-04-18T16:40:57.022Z,102615.41
2023-04-18T16:43:26.787Z,102609.56
2023-04-18T16:45:56.371Z,102608.28
2023-04-18T16:48:24.720Z,102618.09
2023-04-18T16:50:52.615Z,102610.19
2023-04-18T16:53:22.327Z,102608.16
2023-04-18T16:55:50.395Z,102609.94
2023-04-18T16:58:18.358Z,102605.84
2023-04-18T17:00:46.303Z,102598.03
2023-04-18T17:03:14.268Z,102601.25
2023-04-18T17:05:42.207Z,102595.19
2023-04-18T17:08:09.987Z,102598.41
2023-04-18T17:10:39.140Z,102600.59
2023-04-18T17:13:06.897Z,102594.69
2023-04-18T17:15:34.631Z,102595.13
2023-04-18T17:18:02.581Z,102599.19
2023-04-18T17:20:30.427Z,102611.47
2023-04-18T17:22:58.315Z,102601.97
2023-04-18T17:25:26.118Z,102611.88
2023-04-18T17:27:55.233Z,102605.31
2023-04-18T17:30:23.201Z,102606.81
2023-04-18T17:32:51.083Z,102613.19
2023-04-18T17:35:18.962Z,102620.00
2023-04-18T17:37:47.507Z,102617.69
2023-04-18T17:40:15.643Z,102613.41
2023-04-18T17:42:43.472Z,102612.84
2023-04-18T17:45:12.660Z,102610.66
2023-04-18T17:47:41.109Z,102622.00
2023-04-18T17:50:09.749Z,102619.34
2023-04-18T17:52:37.616Z,102619.47
2023-04-18T17:55:06.298Z,102622.31
2023-04-18T17:57:35.361Z,102608.38
2023-04-18T18:00:07.282Z,102617.38
2023-04-18T18:02:42.355Z,102614.63
2023-04-18T18:05:12.985Z,102616.06
2023-04-18T18:07:42.965Z,102617.38
2023-04-18T18:10:11.669Z,102614.97
2023-04-18T18:12:39.998Z,102611.47
2023-04-18T18:15:09.588Z,102616.72
2023-04-18T18:17:37.515Z,102616.84
2023-04-18T18:20:09.667Z,102617.38
2023-04-18T18:22:37.475Z,102627.56
2023-04-18T18:25:06.132Z,102625.38
2023-04-18T18:27:33.953Z,102623.59
2023-04-18T18:30:01.707Z,102623.06
2023-04-18T18:32:29.562Z,102623.81
2023-04-18T18:34:57.361Z,102629.50
2023-04-18T18:37:26.729Z,102624.91
2023-04-18T18:39:56.190Z,102619.84
2023-04-18T18:42:24.157Z,102631.59
2023-04-18T18:44:51.973Z,102623.81
2023-04-18T18:47:19.826Z,102632.88
2023-04-18T18:49:48.685Z,102638.69
2023-04-18T18:52:16.899Z,102633.25
2023-04-18T18:54:46.063Z,102639.44
2023-04-18T18:57:13.846Z,102644.91
2023-04-18T18:59:42.607Z,102645.09
2023-04-18T19:02:10.494Z,102645.16
2023-04-18T19:04:38.738Z,102642.59
2023-04-18T19:07:07.249Z,102651.00
2023-04-18T19:09:36.806Z,102653.84
2023-04-18T19:12:06.899Z,102656.34
2023-04-18T19:14:34.696Z,102656.88
2023-04-18T19:17:03.022Z,102657.97
2023-04-18T19:19:30.920Z,102666.81
2023-04-18T19:22:00.444Z,102669.47
2023-04-18T19:24:28.605Z,102665.75
2023-04-18T19:26:56.788Z,102671.50
2023-04-18T19:29:30.662Z,102677.31
2023-04-18T19:32:00.412Z,102676.69
2023-04-18T19:34:28.288Z,102678.00
2023-04-18T19:36:56.073Z,102682.31
2023-04-18T19:39:23.858Z,102682.06
2023-04-18T19:41:51.661Z,102678.78
2023-04-18T19:44:19.457Z,102696.13
2023-04-18T19:46:48.586Z,102693.03
2023-04-18T19:49:16.578Z,102694.19
2023-04-18T19:51:44.507Z,102701.31
2023-04-18T19:54:12.270Z,102703.44
2023-04-18T19:56:40.063Z,102703.44
2023-04-18T19:59:10.925Z,102708.94
2023-04-18T20:01:39.216Z,102697.38
2023-04-18T20:04:08.651Z,102705.78
2023-04-18T20:06:37.627Z,102704.28
2023-04-18T20:09:05.790Z,102710.66
2023-04-18T20:11:33.590Z,102710.81
2023-04-18T20:14:01.402Z,102714.78
2023-04-18T20:16:29.258Z,102716.03
2023-04-18T20:18:57.301Z,102715.28
2023-04-18T20:21:27.256Z,102716.97
2023-04-18T20:23:56.546Z,102720.50
2023-04-18T20:26:24.347Z,102718.25
2023-04-18T20:28:52.152Z,102715.59
2023-04-18T20:31:19.974Z,102717.19
2023-04-18T20:33:47.746Z,102715.66
2023-04-18T20:36:17.570Z,102722.44
2023-04-18T20:38:46.777Z,102720.94
2023-04-18T20:41:14.974Z,102720.69
2023-04-18T20:43:43.508Z,102722.72
2023-04-18T20:46:12.830Z,102725.13
2023-04-18T20:48:40.757Z,102722.84
2023-04-18T20:51:08.509Z,102725.22
2023-04-18T20:53:36.290Z,102725.66
2023-04-18T20:56:05.825Z,102722.56
2023-04-18T20:58:33.591Z,102729.66
2023-04-18T21:01:01.409Z,102722.78
2023-04-18T21:03:29.283Z,102736.81
2023-04-18T21:05:57.158Z,102736.91
2023-04-18T21:08:24.944Z,102732.22
2023-04-18T21:10:53.230Z,102732.34
2023-04-18T21:13:22.368Z,102731.97
2023-04-18T21:15:51.866Z,102739.03
2023-04-18T21:18:19.784Z,102740.22
2023-04-18T21:20:47.561Z,102739.47
2023-04-18T21:23:15.374Z,102741.06
2023-04-18T21:25:43.134Z,102739.53
2023-04-18T21:28:10.992Z,102747.38
2023-04-18T21:30:40.220Z,102745.03
2023-04-18T21:33:07.984Z,102749.34
2023-04-18T21:35:35.751Z,102747.44
2023-04-18T21:38:03.567Z,102747.06
2023-04-18T21:40:33.244Z,102741.22
2023-04-18T21:43:01.038Z,102744.06
2023-04-18T21:45:28.827Z,102747.63
2023-04-18T21:47:58.016Z,102738.66
2023-04-18T21:50:26.063Z,102749.97
2023-04-18T21:52:53.808Z,102748.47
2023-04-18T21:55:21.609Z,102745.00
2023-04-18T21:57:49.364Z,102747.41
2023-04-18T22:00:17.854Z,102747.81
2023-04-18T22:02:46.159Z,102745.53
2023-04-18T22:05:16.117Z,102745.22
2023-04-18T22:07:56.881Z,102736.66
2023-04-18T22:10:26.173Z,102738.25
2023-04-18T22:12:54.475Z,102740.59
2023-04-18T22:15:22.470Z,102732.44
2023-04-18T22:17:50.449Z,102733.63
2023-04-18T22:20:19.690Z,102740.63
2023-04-18T22:22:47.417Z,102736.75
2023-04-18T22:25:15.270Z,102734.06
2023-04-18T22:27:43.607Z,102731.00
2023-04-18T22:30:12.687Z,102735.28
2023-04-18T22:32:41.699Z,102732.59
2023-04-18T22:35:10.537Z,102749.72
2023-04-18T22:37:39.662Z,102735.31
2023-04-18T22:40:08.946Z,102730.66
2023-04-18T22:42:38.078Z,102737.34
2023-04-18T22:45:07.797Z,102744.75
2023-04-18T22:47:35.586Z,102735.03
2023-04-18T22:50:03.535Z,102743.63
2023-04-18T22:52:31.471Z,102751.41
2023-04-18T22:55:00.626Z,102746.75
2023-04-18T22:57:28.415Z,102749.47
2023-04-18T22:59:56.184Z,102748.38
2023-04-18T23:02:24.112Z,102752.25
2023-04-18T23:04:53.354Z,102750.34
2023-04-18T23:07:21.196Z,102751.94
2023-04-18T23:09:48.939Z,102753.88
2023-04-18T23:12:18.101Z,102749.63
2023-04-18T23:14:45.886Z,102757.81
2023-04-18T23:17:13.644Z,102759.44
2023-04-18T23:19:41.507Z,102760.97
2023-04-18T23:22:09.286Z,102767.63
2023-04-18T23:24:37.054Z,102772.69
2023-04-18T23:27:04.878Z,102764.53
2023-04-18T23:29:37.674Z,102762.56
2023-04-18T23:32:06.313Z,102758.69
2023-04-18T23:34:34.138Z,102766.84
2023-04-18T23:37:01.911Z,102765.28
2023-04-18T23:39:29.722Z,102757.50
2023-04-18T23:41:57.515Z,102750.88
2023-04-18T23:44:25.370Z,102755.53
2023-04-18T23:46:54.508Z,102754.00
2023-04-18T23:49:22.314Z,102754.75
2023-04-18T23:51:50.053Z,102759.06
2023-04-18T23:54:17.824Z,102747.78
2023-04-18T23:56:45.615Z,102755.97
2023-04-18T23:59:13.380Z,102751.28
